Flight Track Log - Related Links

Times and Time Zones

All times are in EDT time to prevent confusion due to time zone crossing. See the UAL4236 flight status page for this flight to view local times or setup timezone preferences in your user account.

Time Position Orientation Groundspeed Altitude Reporting Facility
EDT Latitude Longitude Course Direction KTS MPH feet Rate Location/Type
Fri 10:30:47 AM 29.9597 -95.3461 238° Southwest 169 194 600  Level Houston Center
Fri 10:31:55 AM 29.9383 -95.3850 238° Southwest 224 258 2,100 1,375 Climbing Houston Center
Fri 10:32:23 AM 29.9453 -95.4172 284° West 229 264 2,800 1,770 Climbing Houston Center
Fri 10:32:56 AM 29.9539 -95.4650 282° West 264 304 3,900 2,129 Climbing Houston Center
Fri 10:33:25 AM 29.9711 -95.4942 304° West 261 300 5,000 2,361 Climbing Houston Center
Fri 10:33:57 AM 29.9961 -95.5372 304° West 268 308 6,300 2,032 Climbing Houston Center
Fri 10:34:27 AM 30.0133 -95.5669 304° West 271 312 7,100 1,935 Climbing Houston Center
Fri 10:34:59 AM 30.0306 -95.6175 291° West 283 326 8,300 1,935 Climbing Houston Center
Fri 10:35:29 AM 30.0386 -95.6517 285° West 281 323 9,100 1,700 Climbing Houston Center
Fri 10:35:59 AM 30.0428 -95.7078 275° West 293 337 10,000 1,429 Climbing Houston Center
Fri 10:36:32 AM 30.0475 -95.7467 278° West 294 338 10,600 1,548 Climbing Houston Center
Fri 10:37:01 AM 30.0539 -95.8103 277° West 315 362 11,600 1,452 Climbing Houston Center
Fri 10:37:34 AM 30.0583 -95.8467 278° West 312 359 12,100 1,453 Climbing Houston Center
Fri 10:38:36 AM 30.0714 -95.9700 277° West 320 368 13,900 1,403 Climbing Houston Center
Fri 10:39:38 AM 30.0822 -96.0744 277° West 331 381 15,000 774 Climbing Houston Center
Fri 10:40:40 AM 30.0939 -96.1897 277° West 359 413 15,500 581 Climbing Houston Center
Fri 10:41:42 AM 30.1103 -96.3111 279° West 384 442 16,200 871 Climbing Houston Center
Fri 10:42:44 AM 30.1322 -96.4531 280° West 390 449 17,300 864 Climbing Houston Center
Fri 10:43:47 AM 30.1511 -96.5789 280° West 395 455 18,000 672 Climbing Houston Center
Fri 10:44:49 AM 30.1700 -96.7064 280° West 401 461 18,700 726 Climbing Houston Center
Fri 10:45:51 AM 30.1903 -96.8414 280° West 406 467 19,500 774 Climbing Houston Center
Fri 10:46:53 AM 30.2086 -96.9683 280° West 412 474 20,300 823 Climbing Houston Center
Fri 10:47:55 AM 30.2322 -97.1306 280° West 422 486 21,200 823 Climbing Houston Center
Fri 10:48:57 AM 30.2533 -97.2669 280° West 426 490 22,000 726 Climbing Houston Center
Fri 10:49:59 AM 30.2728 -97.4033 279° West 427 491 22,700 720 Climbing Houston Center
Fri 10:51:02 AM 30.2931 -97.5400 280° West 428 493 23,500 816 Climbing Houston Center
Fri 10:52:04 AM 30.3128 -97.6761 280° West 428 493 24,400 919 Climbing Houston Center
Fri 10:53:06 AM 30.3375 -97.8089 282° West 426 490 25,400 1,016 Climbing Houston Center
Fri 10:54:08 AM 30.3706 -97.9642 284° West 416 479 26,500 1,016 Climbing Houston Center
Fri 10:55:10 AM 30.3983 -98.0939 284° West 416 479 27,500 912 Climbing Houston Center
Fri 10:56:13 AM 30.4242 -98.2228 283° West 414 476 28,400 912 Climbing Houston Center
Fri 10:57:15 AM 30.4519 -98.3522 284° West 414 476 29,400 968 Climbing Houston Center
Fri 10:58:17 AM 30.4756 -98.4822 282° West 413 475 30,400 919 Climbing Houston Center
Fri 10:59:19 AM 30.5006 -98.6119 283° West 414 476 31,300 968 Climbing Houston Center
Fri 11:00:21 AM 30.5303 -98.7706 282° West 415 478 32,400 1,016 Climbing Houston Center
Fri 11:01:23 AM 30.5550 -98.9022 282° West 417 480 33,400 919 Climbing Houston Center
Fri 11:02:25 AM 30.5792 -99.0344 282° West 417 480 34,300 968 Climbing Houston Center
Fri 11:03:27 AM 30.6056 -99.1811 282° West 418 481 35,400 816 Climbing Houston Center
Fri 11:04:30 AM 30.6297 -99.3114 282° West 417 480 36,000 288 Climbing Houston Center
Fri 11:05:32 AM 30.6544 -99.4472 282° West 428 493 36,000  Level Houston Center
Fri 11:06:34 AM 30.6800 -99.5914 282° West 452 520 36,000  Level Houston Center
Fri 11:07:36 AM 30.7075 -99.7397 282° West 467 537 36,000  Level Houston Center
Fri 11:08:38 AM 30.7350 -99.8917 282° West 481 554 36,000  Level Houston Center
Fri 11:09:40 AM 30.7656 -100.0700 281° West 474 545 36,000  Level Houston Center
Fri 11:10:42 AM 30.7911 -100.2186 281° West 475 547 36,000  Level Houston Center
Fri 11:11:45 AM 30.8172 -100.3681 282° West 474 545 36,000  Level Houston Center
Fri 11:12:47 AM 30.8433 -100.5183 281° West 475 547 36,000  Level Houston Center
Fri 11:13:49 AM 30.8742 -100.7003 281° West 476 548 36,000  Level Houston Center
Fri 11:14:51 AM 30.9006 -100.8533 281° West 482 555 36,000  Level Houston Center
Fri 11:15:53 AM 30.9258 -101.0072 281° West 485 558 36,000  Level Houston Center
Fri 11:16:55 AM 30.9511 -101.1608 281° West 485 558 36,000  Level Houston Center
Fri 11:17:57 AM 30.9772 -101.3131 281° West 484 557 36,000  Level Houston Center
Fri 11:19:00 AM 31.0017 -101.4681 280° West 482 555 36,000  Level Houston Center
Fri 11:20:02 AM 31.0308 -101.6517 281° West 482 555 36,000  Level Houston Center
Fri 11:21:04 AM 31.0564 -101.8031 281° West 481 554 36,000  Level Houston Center
Fri 11:22:06 AM 31.0811 -101.9569 281° West 481 554 36,000  Level Houston Center
Fri 11:23:08 AM 31.0972 -102.1133 277° West 481 554 36,000  Level Houston Center
Fri 11:23:43 AM 31.0969 -102.2183 270° West 490 564 36,000  Level Albuquerque Center
Fri 11:24:45 AM 31.1017 -102.3742 272° West 486 559 36,000  Level Albuquerque Center
Fri 11:25:47 AM 31.1042 -102.5331 271° West 486 559 36,000  Level Albuquerque Center
Fri 11:26:49 AM 31.1061 -102.6908 271° West 486 559 36,000  Level Albuquerque Center
Fri 11:27:52 AM 31.1097 -102.8506 272° West 486 559 36,000  Level Albuquerque Center
Fri 11:28:54 AM 31.1142 -103.0075 272° West 486 559 36,000  Level Albuquerque Center
Fri 11:29:56 AM 31.1192 -103.1975 272° West 486 559 36,000 -387 Level Albuquerque Center
Fri 11:30:58 AM 31.1239 -103.3553 272° West 487 560 35,200 -871 Descending Albuquerque Center
Fri 11:32:00 AM 31.1319 -103.5078 274° West 478 550 34,200 -1,016 Descending Albuquerque Center
Fri 11:33:02 AM 31.1622 -103.6525 284° West 462 532 33,100 -1,016 Descending Albuquerque Center
Fri 11:34:04 AM 31.1953 -103.8103 284° West 462 532 32,100 -532 Descending Albuquerque Center
Fri 11:35:06 AM 31.2267 -103.9617 284° West 476 548 32,000 -48 Descending Albuquerque Center
Fri 11:36:09 AM 31.2567 -104.1092 283° West 475 547 32,000  Level Albuquerque Center
Fri 11:37:11 AM 31.2894 -104.2617 284° West 475 547 32,000  Level Albuquerque Center
Fri 11:38:13 AM 31.3242 -104.4386 283° West 475 547 32,000  Level Albuquerque Center
Fri 11:39:15 AM 31.3536 -104.5900 283° West 476 548 32,000 -484 Level Albuquerque Center
Fri 11:40:17 AM 31.3844 -104.7406 284° West 478 550 31,000 -1,790 Descending Albuquerque Center
Fri 11:41:19 AM 31.4142 -104.8897 283° West 478 550 28,300 -2,468 Descending Albuquerque Center
Fri 11:42:21 AM 31.4436 -105.0394 283° West 477 549 25,900 -2,688 Descending Albuquerque Center
Fri 11:43:24 AM 31.4772 -105.2181 282° West 476 548 22,700 -2,736 Descending Albuquerque Center
Fri 11:44:26 AM 31.5044 -105.3622 283° West 460 529 20,200 -2,480 Descending Albuquerque Center
Fri 11:44:39 AM 31.5100 -105.4031 279° West 451 519 19,600 -2,129 Descending Albuquerque Center
Fri 11:45:28 AM 31.5319 -105.5019 285° West 446 513 18,000 -2,127 Descending Albuquerque Center
Fri 11:45:58 AM 31.5467 -105.5858 282° West 436 502 16,800 -2,032 Descending Albuquerque Center
Fri 11:46:30 AM 31.5569 -105.6389 283° West 433 498 15,900 -2,300 Descending Albuquerque Center
Fri 11:46:58 AM 31.5733 -105.7161 284° West 413 475 14,500 -2,323 Descending Albuquerque Center
Fri 11:47:32 AM 31.5828 -105.7683 282° West 415 478 13,500 -2,361 Descending Albuquerque Center
Fri 11:47:59 AM 31.6147 -105.8356 299° West 387 445 12,100 -2,226 Descending Albuquerque Center
Fri 11:48:34 AM 31.6433 -105.8953 299° West 372 428 11,200 -1,475 Descending Albuquerque Center
Fri 11:49:00 AM 31.6661 -105.9397 301° West 333 383 10,600 -1,065 Descending Albuquerque Center
Fri 11:49:36 AM 31.6894 -105.9853 301° West 324 373 10,100 -1,000 Descending Albuquerque Center
Fri 11:50:00 AM 31.7094 -106.0239 301° West 286 329 9,600 -1,258 Descending Albuquerque Center
Fri 11:50:38 AM 31.7303 -106.0653 301° West 293 337 8,800 -1,519 Descending Albuquerque Center
Fri 11:51:19 AM 31.7633 -106.1303 301° West 284 327 7,600 -1,524 Descending Albuquerque Center
Fri 11:51:41 AM 31.7708 -106.1456 300° West 288 331 7,200 -1,475 Descending Albuquerque Center
Fri 11:52:20 AM 31.8006 -106.2058 300° West 273 314 6,100 -1,161 Descending Albuquerque Center
Fri 11:52:43 AM 31.8086 -106.2206 303° West 272 313 6,000 -600 Descending Albuquerque Center
Fri 11:53:20 AM 31.8336 -106.2700 301° West 219 252 5,500 -484 Descending Albuquerque Center
Fri 11:53:45 AM 31.8456 -106.2944 300° West 216 249 5,500 -367 Level Albuquerque Center
Fri 11:54:09 AM 31.8550 -106.3172 296° West 172 198 5,200 -871 Descending Albuquerque Center
Fri 11:54:47 AM 31.8436 -106.3394 239° Southwest 168 193 4,600 -900 Descending Albuquerque Center
Fri 11:55:09 AM 31.8319 -106.3553 229° Southwest 137 158 4,300 -677 Descending Albuquerque Center
Fri 11:55:49 AM 31.8192 -106.3744 232° Southwest 151 174 3,900 -600 Descending Albuquerque Center

Login

Don't have an account? Register now (free) for customized features, flight alerts, and more!